createdAt,value
2022-10-21T00:00:52.130Z,13.17
2022-10-21T00:03:21.013Z,14.13
2022-10-21T00:05:49.681Z,15.23
2022-10-21T00:08:20.065Z,16.63
2022-10-21T00:10:52.490Z,18.63
2022-10-21T00:13:20.389Z,15.13
2022-10-21T00:15:58.928Z,17.00
2022-10-21T00:18:26.530Z,16.87
2022-10-21T00:20:54.203Z,18.13
2022-10-21T00:23:23.664Z,13.87
2022-10-21T00:25:51.400Z,22.27
2022-10-21T00:28:18.967Z,15.93
2022-10-21T00:30:47.345Z,23.77
2022-10-21T00:33:15.339Z,16.23
2022-10-21T00:35:42.943Z,14.77
2022-10-21T00:38:10.950Z,15.43
2022-10-21T00:40:39.928Z,13.90
2022-10-21T00:43:07.559Z,14.90
2022-10-21T00:45:35.222Z,15.47
2022-10-21T00:48:06.576Z,15.90
2022-10-21T00:50:40.281Z,17.30
2022-10-21T00:53:13.850Z,15.73
2022-10-21T00:55:48.460Z,15.67
2022-10-21T00:58:19.208Z,17.10
2022-10-21T01:00:46.840Z,20.20
2022-10-21T01:03:15.492Z,17.67
2022-10-21T01:05:43.984Z,17.33
2022-10-21T01:08:11.633Z,16.63
2022-10-21T01:10:39.499Z,13.40
2022-10-21T01:13:20.085Z,19.60
2022-10-21T01:15:56.618Z,19.97
2022-10-21T01:18:32.271Z,18.53
2022-10-21T01:21:11.372Z,18.40
2022-10-21T01:24:04.038Z,21.60
2022-10-21T01:26:58.673Z,20.30
2022-10-21T01:30:06.132Z,13.20
2022-10-21T01:32:47.036Z,18.40
2022-10-21T01:35:22.276Z,18.47
2022-10-21T01:37:58.755Z,16.93
2022-10-21T01:40:31.888Z,19.73
2022-10-21T01:43:03.829Z,22.67
2022-10-21T01:45:37.179Z,16.10
2022-10-21T01:48:10.205Z,20.73
2022-10-21T01:50:43.409Z,24.77
2022-10-21T01:53:13.953Z,18.73
2022-10-21T01:55:42.761Z,15.90
2022-10-21T01:58:14.741Z,17.03
2022-10-21T02:00:43.600Z,19.67
2022-10-21T02:03:20.569Z,16.00
2022-10-21T02:05:48.197Z,20.27
2022-10-21T02:08:15.941Z,19.13
2022-10-21T02:10:46.926Z,17.17
2022-10-21T02:13:18.546Z,17.23
2022-10-21T02:15:46.674Z,15.30
2022-10-21T02:18:21.472Z,22.53
2022-10-21T02:20:53.709Z,15.50
2022-10-21T02:23:27.494Z,17.23
2022-10-21T02:25:55.281Z,16.33
2022-10-21T02:28:23.085Z,15.13
2022-10-21T02:31:00.658Z,16.13
2022-10-21T02:33:40.167Z,16.10
2022-10-21T02:36:15.346Z,15.80
2022-10-21T02:38:48.237Z,15.43
2022-10-21T02:41:20.067Z,15.43
2022-10-21T02:43:49.990Z,20.10
2022-10-21T02:46:17.792Z,16.03
2022-10-21T02:48:48.482Z,16.23
2022-10-21T02:51:16.395Z,14.60
2022-10-21T02:53:44.406Z,19.23
2022-10-21T02:56:12.070Z,16.83
2022-10-21T02:58:39.704Z,12.53
2022-10-21T03:01:07.730Z,16.10
2022-10-21T03:03:35.316Z,16.57
2022-10-21T03:06:04.762Z,14.93
2022-10-21T03:08:32.422Z,16.57
2022-10-21T03:11:00.259Z,15.23
2022-10-21T03:13:28.028Z,11.17
2022-10-21T03:15:55.717Z,11.93
2022-10-21T03:18:23.281Z,14.20
2022-10-21T03:20:51.564Z,12.53
2022-10-21T03:23:21.115Z,14.53
2022-10-21T03:25:48.807Z,15.20
2022-10-21T03:28:20.964Z,11.27
2022-10-21T03:30:48.701Z,10.97
2022-10-21T03:33:16.314Z,12.10
2022-10-21T03:35:43.919Z,11.40
2022-10-21T03:38:11.728Z,15.50
2022-10-21T03:40:40.876Z,13.70
2022-10-21T03:43:08.609Z,21.43
2022-10-21T03:45:36.322Z,18.53
2022-10-21T03:48:04.179Z,10.53
2022-10-21T03:50:31.783Z,11.30
2022-10-21T03:53:02.392Z,14.03
2022-10-21T03:55:37.648Z,17.17
2022-10-21T03:58:06.753Z,12.30
2022-10-21T04:00:34.796Z,13.70
2022-10-21T04:03:02.474Z,13.10
2022-10-21T04:05:30.212Z,13.17
2022-10-21T04:07:57.800Z,15.23
2022-10-21T04:10:25.437Z,15.27
2022-10-21T04:12:53.005Z,16.37
2022-10-21T04:15:22.004Z,8.63
2022-10-21T04:17:49.694Z,14.10
2022-10-21T04:20:17.471Z,11.10
2022-10-21T04:22:45.041Z,9.93
2022-10-21T04:25:12.706Z,13.00
2022-10-21T04:27:40.338Z,12.50
2022-10-21T04:30:09.584Z,14.67
2022-10-21T04:32:38.864Z,14.23
2022-10-21T04:35:07.206Z,11.60
2022-10-21T04:37:35.091Z,13.40
2022-10-21T04:40:02.758Z,11.67
2022-10-21T04:42:30.473Z,14.67
2022-10-21T04:44:58.181Z,16.57
2022-10-21T04:47:25.992Z,16.47
2022-10-21T04:49:54.909Z,13.40
2022-10-21T04:52:22.553Z,13.30
2022-10-21T04:54:50.221Z,16.20
2022-10-21T04:57:17.738Z,15.63
2022-10-21T04:59:45.300Z,16.77
2022-10-21T05:02:13.696Z,13.60
2022-10-21T05:04:41.268Z,13.70
2022-10-21T05:07:10.567Z,17.17
2022-10-21T05:09:38.234Z,19.03
2022-10-21T05:12:06.031Z,15.57
2022-10-21T05:14:33.792Z,14.73
2022-10-21T05:17:01.491Z,13.00
2022-10-21T05:19:31.285Z,14.30
2022-10-21T05:21:59.644Z,15.37
2022-10-21T05:24:29.066Z,14.23
2022-10-21T05:26:56.966Z,14.80
2022-10-21T05:29:24.739Z,11.67
2022-10-21T05:31:52.389Z,11.47
2022-10-21T05:34:20.098Z,9.97
2022-10-21T05:36:48.582Z,11.30
2022-10-21T05:39:16.684Z,16.57
2022-10-21T05:41:47.940Z,12.37
2022-10-21T05:44:16.197Z,14.17
2022-10-21T05:46:43.813Z,11.43
2022-10-21T05:49:11.412Z,10.80
2022-10-21T05:51:39.168Z,11.17
2022-10-21T05:54:06.881Z,15.93
2022-10-21T05:56:34.599Z,12.90
2022-10-21T05:59:05.494Z,15.63
2022-10-21T06:01:36.566Z,15.80
2022-10-21T06:04:04.449Z,15.10
2022-10-21T06:06:32.203Z,15.00
2022-10-21T06:09:00.572Z,14.27
2022-10-21T06:11:28.221Z,13.53
2022-10-21T06:13:55.882Z,12.80
2022-10-21T06:16:24.865Z,17.00
2022-10-21T06:18:52.525Z,14.70
2022-10-21T06:21:20.182Z,14.37
2022-10-21T06:23:47.963Z,16.63
2022-10-21T06:26:16.993Z,17.60
2022-10-21T06:28:45.321Z,17.80
2022-10-21T06:31:15.976Z,14.20
2022-10-21T06:33:45.363Z,20.70
2022-10-21T06:36:13.103Z,15.90
2022-10-21T06:38:41.189Z,22.37
2022-10-21T06:41:13.207Z,13.87
2022-10-21T06:43:41.801Z,12.27
2022-10-21T06:46:11.200Z,15.63
2022-10-21T06:48:39.922Z,13.30
2022-10-21T06:51:11.475Z,16.77
2022-10-21T06:53:39.993Z,12.60
2022-10-21T06:56:10.206Z,15.00
2022-10-21T06:58:39.666Z,12.93
2022-10-21T07:01:16.555Z,12.27
2022-10-21T07:03:56.286Z,13.20
2022-10-21T07:06:25.636Z,13.63
2022-10-21T07:08:58.360Z,10.70
2022-10-21T07:11:26.848Z,11.23
2022-10-21T07:13:54.716Z,12.33
2022-10-21T07:16:25.309Z,12.77
2022-10-21T07:18:54.628Z,12.13
2022-10-21T07:21:23.958Z,13.40
2022-10-21T07:23:56.656Z,14.03
2022-10-21T07:26:28.495Z,13.53
2022-10-21T07:28:58.689Z,10.20
2022-10-21T07:31:26.569Z,12.80
2022-10-21T07:33:54.897Z,13.87
2022-10-21T07:36:24.955Z,13.47
2022-10-21T07:38:55.510Z,13.27
2022-10-21T07:41:26.350Z,15.33
2022-10-21T07:43:55.568Z,15.30
2022-10-21T07:46:23.873Z,11.33
2022-10-21T07:48:52.448Z,10.17
2022-10-21T07:51:25.693Z,16.70
2022-10-21T07:53:58.833Z,17.83
2022-10-21T07:56:30.183Z,13.90
2022-10-21T07:58:58.608Z,12.97
2022-10-21T08:01:26.549Z,12.90
2022-10-21T08:03:55.884Z,15.57
2022-10-21T08:06:25.470Z,15.90
2022-10-21T08:08:53.859Z,14.80
2022-10-21T08:11:24.419Z,11.00
2022-10-21T08:13:52.150Z,16.27
2022-10-21T08:16:20.052Z,10.73
2022-10-21T08:18:48.240Z,16.30
2022-10-21T08:21:16.201Z,12.40
2022-10-21T08:23:43.843Z,13.80
2022-10-21T08:26:13.747Z,14.17
2022-10-21T08:28:43.652Z,11.57
2022-10-21T08:31:14.124Z,12.10
2022-10-21T08:33:42.240Z,15.80
2022-10-21T08:36:13.545Z,14.37
2022-10-21T08:38:44.684Z,15.67
2022-10-21T08:41:30.127Z,12.80
2022-10-21T08:44:04.802Z,15.17
2022-10-21T08:46:36.180Z,16.47
2022-10-21T08:49:08.211Z,11.03
2022-10-21T08:51:40.871Z,11.93
2022-10-21T08:54:15.125Z,11.93
2022-10-21T08:56:43.009Z,17.87
2022-10-21T08:59:20.198Z,14.13
2022-10-21T09:01:57.520Z,13.70
2022-10-21T09:04:34.533Z,13.00
2022-10-21T09:07:11.271Z,12.20
2022-10-21T09:09:48.170Z,10.63
2022-10-21T09:12:24.160Z,9.70
2022-10-21T09:15:15.466Z,17.87
2022-10-21T09:17:55.707Z,11.00
2022-10-21T09:20:34.258Z,11.10
2022-10-21T09:23:12.357Z,11.10
2022-10-21T09:25:51.969Z,11.20
2022-10-21T09:28:19.761Z,11.17
2022-10-21T09:30:49.140Z,9.23
2022-10-21T09:33:23.197Z,11.17
2022-10-21T09:35:55.008Z,13.87
2022-10-21T09:38:27.059Z,6.63
2022-10-21T09:41:03.041Z,8.27
2022-10-21T09:43:31.680Z,15.97
2022-10-21T09:46:08.889Z,8.83
2022-10-21T09:49:08.116Z,7.77
2022-10-21T09:51:40.069Z,8.70
2022-10-21T09:54:11.500Z,7.73
2022-10-21T09:56:43.985Z,9.23
2022-10-21T09:59:13.733Z,10.50
2022-10-21T10:01:44.275Z,9.73
2022-10-21T10:04:14.114Z,9.57
2022-10-21T10:06:43.553Z,7.27
2022-10-21T10:09:17.045Z,7.30
2022-10-21T10:11:54.678Z,9.07
2022-10-21T10:14:29.998Z,8.37
2022-10-21T10:17:19.464Z,7.00
2022-10-21T10:20:16.137Z,6.60
2022-10-21T10:22:45.138Z,8.67
2022-10-21T10:25:21.561Z,7.13
2022-10-21T10:27:51.110Z,8.10
2022-10-21T10:30:19.380Z,6.90
2022-10-21T10:32:50.271Z,8.50
2022-10-21T10:35:30.512Z,7.97
2022-10-21T10:38:01.423Z,5.37
2022-10-21T10:40:32.692Z,7.27
2022-10-21T10:43:05.684Z,7.23
2022-10-21T10:45:33.573Z,6.57
2022-10-21T10:48:04.618Z,5.47
2022-10-21T10:50:43.238Z,5.33
2022-10-21T10:53:23.330Z,6.63
2022-10-21T10:56:00.541Z,7.20
2022-10-21T10:58:32.681Z,6.00
2022-10-21T11:01:03.457Z,10.50
2022-10-21T11:03:41.325Z,7.23
2022-10-21T11:06:16.880Z,7.07
2022-10-21T11:08:49.824Z,8.40
2022-10-21T11:11:25.802Z,7.93
2022-10-21T11:13:53.827Z,7.13
2022-10-21T11:16:59.412Z,9.63
2022-10-21T11:19:36.491Z,7.33
2022-10-21T11:22:14.006Z,7.80
2022-10-21T11:24:55.234Z,6.40
2022-10-21T11:27:33.470Z,6.67
2022-10-21T11:30:06.946Z,9.40
2022-10-21T11:32:51.604Z,6.77
2022-10-21T11:35:34.808Z,11.33
2022-10-21T11:38:36.092Z,7.20
2022-10-21T11:41:12.416Z,5.93
2022-10-21T11:43:50.658Z,8.20
2022-10-21T11:46:23.831Z,6.43
2022-10-21T11:49:04.573Z,7.10
2022-10-21T11:51:44.667Z,5.10
2022-10-21T11:55:02.045Z,5.00
2022-10-21T11:57:37.364Z,7.03
2022-10-21T12:00:13.179Z,6.67
2022-10-21T12:02:44.338Z,5.70
2022-10-21T12:05:25.283Z,7.27
2022-10-21T12:08:13.809Z,7.70
2022-10-21T12:10:47.419Z,5.37
2022-10-21T12:13:21.289Z,5.20
2022-10-21T12:15:52.112Z,7.03
2022-10-21T12:18:23.016Z,4.87
2022-10-21T12:20:53.710Z,7.13
2022-10-21T12:23:25.334Z,9.27
2022-10-21T12:26:14.385Z,5.20
2022-10-21T12:28:46.975Z,9.37
2022-10-21T12:31:28.138Z,7.30
2022-10-21T12:33:56.636Z,5.80
2022-10-21T12:36:42.692Z,10.40
2022-10-21T12:39:39.277Z,7.20
2022-10-21T12:42:13.156Z,8.80
2022-10-21T12:44:46.364Z,6.67
2022-10-21T12:47:26.573Z,4.90
2022-10-21T12:50:19.329Z,9.90
2022-10-21T12:52:56.768Z,9.73
2022-10-21T12:55:28.291Z,8.73
2022-10-21T12:58:01.304Z,6.47
2022-10-21T13:00:52.774Z,6.73
2022-10-21T13:03:22.513Z,6.73
2022-10-21T13:06:03.520Z,6.63
2022-10-21T13:08:41.150Z,7.50
2022-10-21T13:11:23.818Z,7.07
2022-10-21T13:14:24.864Z,12.07
2022-10-21T13:16:52.545Z,13.50
2022-10-21T13:19:34.908Z,8.53
2022-10-21T13:22:11.499Z,6.00
2022-10-21T13:24:40.240Z,8.00
2022-10-21T13:27:28.817Z,6.70
2022-10-21T13:29:57.442Z,7.33
2022-10-21T13:32:31.187Z,8.23
2022-10-21T13:35:32.129Z,8.87
2022-10-21T13:38:04.415Z,6.37
2022-10-21T13:40:38.766Z,6.67
2022-10-21T13:43:14.992Z,10.70
2022-10-21T13:45:49.018Z,7.30
2022-10-21T13:48:19.772Z,12.00
2022-10-21T13:50:50.600Z,7.80
2022-10-21T13:53:43.525Z,8.33
2022-10-21T13:56:20.687Z,7.07
2022-10-21T13:58:50.484Z,7.33
2022-10-21T14:01:21.851Z,7.37
2022-10-21T14:03:50.392Z,8.33
2022-10-21T14:06:26.127Z,6.00
2022-10-21T14:08:55.703Z,8.50
2022-10-21T14:11:28.579Z,5.60
2022-10-21T14:14:03.556Z,6.50
2022-10-21T14:16:34.494Z,9.30
2022-10-21T14:19:08.101Z,8.37
2022-10-21T14:21:38.429Z,7.70
2022-10-21T14:24:07.352Z,5.53
2022-10-21T14:26:35.242Z,4.83
2022-10-21T14:29:06.489Z,6.87
2022-10-21T14:31:34.287Z,10.90
2022-10-21T14:34:02.402Z,7.17
2022-10-21T14:36:31.826Z,9.23
2022-10-21T14:39:03.779Z,10.10
2022-10-21T14:41:35.641Z,7.97
2022-10-21T14:44:15.214Z,6.67
2022-10-21T14:46:44.786Z,5.90
2022-10-21T14:49:23.376Z,7.40
2022-10-21T14:51:57.248Z,4.80
2022-10-21T14:54:30.317Z,6.23
2022-10-21T14:56:59.977Z,8.20
2022-10-21T14:59:37.563Z,5.87
2022-10-21T15:02:06.561Z,9.03
2022-10-21T15:04:51.651Z,8.00
2022-10-21T15:07:28.641Z,6.00
2022-10-21T15:10:15.499Z,11.40
2022-10-21T15:12:44.971Z,8.00
2022-10-21T15:15:53.283Z,5.50
2022-10-21T15:18:24.244Z,7.10
2022-10-21T15:20:57.811Z,8.87
2022-10-21T15:23:28.586Z,9.37
2022-10-21T15:26:00.800Z,5.33
2022-10-21T15:28:33.986Z,5.87
2022-10-21T15:31:05.509Z,6.17
2022-10-21T15:33:33.229Z,6.20
2022-10-21T15:36:02.453Z,9.27
2022-10-21T15:38:30.081Z,10.60
2022-10-21T15:40:57.861Z,7.60
2022-10-21T15:43:25.507Z,6.60
2022-10-21T15:45:53.529Z,6.33
2022-10-21T15:48:23.106Z,7.67
2022-10-21T15:50:50.797Z,6.13
2022-10-21T15:53:18.449Z,7.80
2022-10-21T15:55:46.057Z,6.73
2022-10-21T15:58:13.764Z,7.23
2022-10-21T16:00:41.968Z,8.27
2022-10-21T16:03:09.898Z,7.33
2022-10-21T16:05:39.618Z,9.27
2022-10-21T16:08:07.296Z,9.47
2022-10-21T16:10:37.446Z,5.47
2022-10-21T16:13:05.368Z,6.80
2022-10-21T16:15:32.969Z,7.67
2022-10-21T16:18:01.006Z,6.03
2022-10-21T16:20:31.171Z,5.97
2022-10-21T16:23:03.029Z,7.57
2022-10-21T16:25:31.307Z,8.43
2022-10-21T16:27:59.157Z,6.07
2022-10-21T16:30:29.841Z,6.97
2022-10-21T16:32:58.159Z,9.63
2022-10-21T16:35:26.229Z,7.80
2022-10-21T16:37:55.700Z,9.50
2022-10-21T16:40:27.549Z,7.43
2022-10-21T16:42:55.356Z,5.07
2022-10-21T16:45:28.447Z,7.10
2022-10-21T16:47:57.860Z,7.20
2022-10-21T16:50:30.974Z,5.30
2022-10-21T16:52:58.673Z,5.13
2022-10-21T16:55:27.916Z,6.80
2022-10-21T16:57:55.635Z,5.70
2022-10-21T17:00:23.513Z,5.27
2022-10-21T17:02:52.681Z,7.40
2022-10-21T17:05:20.742Z,8.00
2022-10-21T17:07:48.708Z,7.90
2022-10-21T17:10:16.592Z,5.17
2022-10-21T17:12:46.271Z,5.63
2022-10-21T17:15:16.588Z,4.70
2022-10-21T17:17:44.458Z,6.77
2022-10-21T17:20:12.660Z,6.90
2022-10-21T17:22:40.535Z,11.13
2022-10-21T17:25:09.083Z,7.17
2022-10-21T17:27:37.284Z,7.67
2022-10-21T17:30:07.961Z,7.07
2022-10-21T17:32:36.415Z,7.53
2022-10-21T17:35:04.280Z,5.03
2022-10-21T17:37:32.009Z,7.00
2022-10-21T17:39:59.890Z,6.90
2022-10-21T17:42:27.838Z,9.10
2022-10-21T17:44:55.689Z,6.53
2022-10-21T17:47:24.955Z,6.33
2022-10-21T17:49:52.781Z,8.37
2022-10-21T17:52:20.679Z,6.87
2022-10-21T17:54:48.494Z,6.90
2022-10-21T17:57:16.344Z,7.83
2022-10-21T17:59:44.724Z,7.73
2022-10-21T18:02:12.626Z,9.80
2022-10-21T18:04:43.355Z,7.30
2022-10-21T18:07:12.344Z,7.80
2022-10-21T18:09:42.207Z,6.70
2022-10-21T18:12:11.089Z,6.03
2022-10-21T18:14:39.117Z,6.33
2022-10-21T18:17:08.473Z,8.37
2022-10-21T18:19:36.331Z,7.80
2022-10-21T18:22:06.013Z,8.43
2022-10-21T18:24:34.478Z,8.77
2022-10-21T18:27:02.733Z,7.50
2022-10-21T18:29:30.510Z,5.10
2022-10-21T18:31:58.403Z,9.60
2022-10-21T18:34:26.667Z,8.23
2022-10-21T18:36:56.467Z,5.80
2022-10-21T18:39:25.797Z,6.57
2022-10-21T18:41:54.933Z,6.33
2022-10-21T18:44:23.107Z,7.70
2022-10-21T18:46:53.715Z,6.07
2022-10-21T18:49:23.825Z,5.27
2022-10-21T18:51:51.719Z,8.77
2022-10-21T18:54:19.675Z,7.30
2022-10-21T18:56:48.947Z,5.73
2022-10-21T18:59:16.797Z,6.10
2022-10-21T19:01:44.666Z,5.57
2022-10-21T19:06:43.463Z,6.23
2022-10-21T19:09:14.047Z,13.10
2022-10-21T19:11:42.177Z,7.43
2022-10-21T19:14:14.143Z,8.83
2022-10-21T19:16:43.203Z,9.63
2022-10-21T19:19:11.008Z,7.97
2022-10-21T19:21:39.146Z,5.83
2022-10-21T19:24:07.527Z,7.27
2022-10-21T19:26:37.673Z,5.37
2022-10-21T19:29:07.326Z,6.87
2022-10-21T19:31:38.533Z,6.50
2022-10-21T19:34:06.731Z,5.87
2022-10-21T19:36:34.880Z,4.90
2022-10-21T19:39:02.768Z,7.30
2022-10-21T19:41:30.704Z,4.80
2022-10-21T19:43:59.084Z,7.20
2022-10-21T19:46:28.769Z,6.87
2022-10-21T19:48:58.725Z,6.27
2022-10-21T19:51:27.601Z,6.40
2022-10-21T19:53:56.321Z,5.33
2022-10-21T19:56:29.575Z,6.93
2022-10-21T19:58:58.977Z,5.60
2022-10-21T20:01:27.396Z,7.73
2022-10-21T20:03:57.190Z,4.40
2022-10-21T20:06:27.548Z,5.23
2022-10-21T20:08:56.223Z,5.10
2022-10-21T20:11:24.329Z,5.73
2022-10-21T20:13:52.526Z,5.30
2022-10-21T20:16:21.803Z,5.40
2022-10-21T20:18:50.129Z,6.50
2022-10-21T20:21:19.767Z,9.17
2022-10-21T20:23:47.557Z,5.80
2022-10-21T20:26:15.297Z,5.33
2022-10-21T20:28:43.170Z,5.83
2022-10-21T20:31:12.662Z,8.00
2022-10-21T20:33:42.761Z,6.80
2022-10-21T20:36:13.667Z,6.80
2022-10-21T20:38:42.798Z,6.73
2022-10-21T20:41:13.688Z,6.20
2022-10-21T20:43:42.641Z,4.80
2022-10-21T20:46:13.074Z,7.93
2022-10-21T20:48:42.925Z,6.50
2022-10-21T20:51:12.326Z,6.20
2022-10-21T20:53:40.561Z,5.20
2022-10-21T20:56:09.821Z,8.43
2022-10-21T20:58:38.184Z,7.20
2022-10-21T21:01:09.829Z,10.73
2022-10-21T21:03:39.409Z,7.63
2022-10-21T21:06:07.920Z,5.87
2022-10-21T21:08:36.454Z,6.40
2022-10-21T21:11:06.339Z,6.70
2022-10-21T21:13:37.826Z,6.50
2022-10-21T21:16:08.078Z,8.80
2022-10-21T21:18:36.596Z,5.20
2022-10-21T21:21:07.742Z,5.30
2022-10-21T21:23:36.073Z,5.83
2022-10-21T21:26:05.269Z,5.30
2022-10-21T21:28:35.570Z,6.17
2022-10-21T21:31:06.607Z,5.23
2022-10-21T21:33:34.999Z,6.30
2022-10-21T21:36:04.621Z,11.07
2022-10-21T21:38:34.045Z,7.37
2022-10-21T21:41:04.477Z,6.60
2022-10-21T21:43:35.092Z,6.70
2022-10-21T21:46:03.372Z,6.47
2022-10-21T21:48:33.406Z,6.37
2022-10-21T21:51:01.395Z,5.93
2022-10-21T21:53:29.084Z,4.47
2022-10-21T21:56:02.199Z,8.60
2022-10-21T21:58:30.617Z,5.40
2022-10-21T22:00:58.278Z,7.97
2022-10-21T22:03:25.902Z,5.20
2022-10-21T22:05:54.861Z,5.40
2022-10-21T22:08:22.446Z,8.50
2022-10-21T22:10:50.146Z,6.87
2022-10-21T22:13:17.685Z,6.47
2022-10-21T22:15:48.803Z,8.63
2022-10-21T22:18:16.608Z,5.23
2022-10-21T22:20:44.238Z,7.70
2022-10-21T22:23:13.282Z,5.30
2022-10-21T22:25:40.911Z,10.43
2022-10-21T22:28:08.840Z,5.23
2022-10-21T22:30:36.491Z,6.20
2022-10-21T22:33:04.207Z,6.17
2022-10-21T22:35:32.196Z,7.77
2022-10-21T22:37:59.757Z,7.07
2022-10-21T22:40:28.725Z,9.13
2022-10-21T22:42:56.414Z,5.53
2022-10-21T22:45:24.033Z,6.30
2022-10-21T22:47:51.641Z,9.90
2022-10-21T22:50:19.560Z,9.33
2022-10-21T22:52:47.552Z,9.30
2022-10-21T22:55:15.385Z,11.73
2022-10-21T22:57:44.618Z,12.73
2022-10-21T23:00:14.431Z,14.97
2022-10-21T23:02:42.493Z,14.50
2022-10-21T23:05:10.388Z,9.93
2022-10-21T23:07:38.160Z,17.47
2022-10-21T23:10:08.420Z,13.23
2022-10-21T23:12:36.760Z,12.23
2022-10-21T23:15:08.458Z,10.97
2022-10-21T23:17:36.271Z,14.27
2022-10-21T23:20:05.012Z,15.00
2022-10-21T23:22:32.597Z,12.53
2022-10-21T23:25:00.194Z,12.57
2022-10-21T23:27:28.239Z,15.20
2022-10-21T23:29:55.852Z,14.03
2022-10-21T23:32:24.956Z,11.97
2022-10-21T23:34:53.442Z,10.40
2022-10-21T23:37:22.437Z,9.70
2022-10-21T23:39:50.250Z,12.60
2022-10-21T23:42:18.027Z,7.80
2022-10-21T23:44:45.691Z,7.33
2022-10-21T23:47:13.511Z,9.40
2022-10-21T23:49:42.696Z,7.40
2022-10-21T23:52:10.580Z,7.53
2022-10-21T23:54:38.297Z,7.10
2022-10-21T23:57:06.331Z,6.43
2022-10-21T23:59:34.294Z,4.83
